createdAt,value
2022-11-12T00:00:56.052Z,12.95
2022-11-12T00:03:22.491Z,5.68
2022-11-12T00:05:49.502Z,6.30
2022-11-12T00:08:16.937Z,6.85
2022-11-12T00:10:43.943Z,6.38
2022-11-12T00:13:10.369Z,6.22
2022-11-12T00:15:36.843Z,6.10
2022-11-12T00:18:03.614Z,7.10
2022-11-12T00:20:30.039Z,7.03
2022-11-12T00:22:56.448Z,6.95
2022-11-12T00:25:23.234Z,5.47
2022-11-12T00:27:49.629Z,5.28
2022-11-12T00:30:16.403Z,6.00
2022-11-12T00:32:42.801Z,6.35
2022-11-12T00:35:13.418Z,6.28
2022-11-12T00:37:40.782Z,6.07
2022-11-12T00:40:09.047Z,5.70
2022-11-12T00:42:35.541Z,5.27
2022-11-12T00:45:02.122Z,5.70
2022-11-12T00:47:28.532Z,6.30
2022-11-12T00:49:54.998Z,5.63
2022-11-12T00:52:21.421Z,6.40
2022-11-12T00:54:48.246Z,6.10
2022-11-12T00:57:14.643Z,5.07
2022-11-12T00:59:41.018Z,5.15
2022-11-12T01:02:07.411Z,5.70
2022-11-12T01:04:33.985Z,6.22
2022-11-12T01:07:00.522Z,6.87
2022-11-12T01:09:27.036Z,7.22
2022-11-12T01:11:53.437Z,8.48
2022-11-12T01:14:19.829Z,8.90
2022-11-12T01:16:46.444Z,8.40
2022-11-12T01:19:13.750Z,9.17
2022-11-12T01:21:43.063Z,8.15
2022-11-12T01:24:10.077Z,7.70
2022-11-12T01:26:37.000Z,6.30
2022-11-12T01:29:03.544Z,7.78
2022-11-12T01:31:35.445Z,7.17
2022-11-12T01:34:05.327Z,6.82
2022-11-12T01:36:35.752Z,7.47
2022-11-12T01:39:02.844Z,6.55
2022-11-12T01:41:32.032Z,7.70
2022-11-12T01:44:16.813Z,6.27
2022-11-12T01:47:00.549Z,7.40
2022-11-12T01:49:38.426Z,6.30
2022-11-12T01:52:34.407Z,6.53
2022-11-12T01:55:05.281Z,8.40
2022-11-12T01:57:38.740Z,6.13
2022-11-12T02:00:12.456Z,8.07
2022-11-12T02:02:39.909Z,6.65
2022-11-12T02:05:09.819Z,6.82
2022-11-12T02:07:39.483Z,5.90
2022-11-12T02:10:07.785Z,6.07
2022-11-12T02:12:53.339Z,5.85
2022-11-12T02:15:19.955Z,6.53
2022-11-12T02:17:46.464Z,5.88
2022-11-12T02:20:14.692Z,5.93
2022-11-12T02:22:41.074Z,6.13
2022-11-12T02:25:12.848Z,6.43
2022-11-12T02:27:39.324Z,5.95
2022-11-12T02:30:06.336Z,5.70
2022-11-12T02:32:32.909Z,7.25
2022-11-12T02:34:59.296Z,6.57
2022-11-12T02:37:25.683Z,6.03
2022-11-12T02:39:52.118Z,6.57
2022-11-12T02:42:18.537Z,6.28
2022-11-12T02:44:45.044Z,6.40
2022-11-12T02:47:11.442Z,6.17
2022-11-12T02:49:37.840Z,6.45
2022-11-12T02:52:04.975Z,7.07
2022-11-12T02:54:31.467Z,6.78
2022-11-12T02:56:57.841Z,6.50
2022-11-12T02:59:24.246Z,6.67
2022-11-12T03:01:50.789Z,6.18
2022-11-12T03:04:17.192Z,13.45
2022-11-12T03:06:43.804Z,13.93
2022-11-12T03:09:12.480Z,7.20
2022-11-12T03:11:38.964Z,7.50
2022-11-12T03:14:05.396Z,7.13
2022-11-12T03:16:31.985Z,6.93
2022-11-12T03:18:58.357Z,7.25
2022-11-12T03:21:24.858Z,5.00
2022-11-12T03:23:51.276Z,4.13
2022-11-12T03:26:17.686Z,4.20
2022-11-12T03:28:44.094Z,4.70
2022-11-12T03:31:11.908Z,5.45
2022-11-12T03:33:38.330Z,5.03
2022-11-12T03:36:05.200Z,5.13
2022-11-12T03:38:31.587Z,4.85
2022-11-12T03:40:58.035Z,5.07
2022-11-12T03:43:27.114Z,4.40
2022-11-12T03:45:53.757Z,5.13
2022-11-12T03:48:20.247Z,4.10
2022-11-12T03:50:46.738Z,4.50
2022-11-12T03:53:13.478Z,3.80
2022-11-12T03:55:39.906Z,4.30
2022-11-12T03:58:06.467Z,4.28
2022-11-12T04:00:32.959Z,4.87
2022-11-12T04:02:59.750Z,4.25
2022-11-12T04:05:45.143Z,5.00
2022-11-12T04:08:36.272Z,5.07
2022-11-12T04:11:09.501Z,5.00
2022-11-12T04:13:38.361Z,5.30
2022-11-12T04:16:29.541Z,5.90
2022-11-12T04:19:16.967Z,6.97
2022-11-12T04:21:55.067Z,7.68
2022-11-12T04:24:48.977Z,6.68
2022-11-12T04:27:17.882Z,5.87
2022-11-12T04:30:14.360Z,8.95
2022-11-12T04:33:01.313Z,7.80
2022-11-12T04:35:27.858Z,6.28
2022-11-12T04:37:55.115Z,8.13
2022-11-12T04:40:42.898Z,14.23
2022-11-12T04:43:30.351Z,9.38
2022-11-12T04:45:57.503Z,9.77
2022-11-12T04:48:25.524Z,11.27
2022-11-12T04:50:58.473Z,10.90
2022-11-12T04:53:25.413Z,12.63
2022-11-12T04:55:53.388Z,10.15
2022-11-12T04:58:20.303Z,13.60
2022-11-12T05:00:47.844Z,15.52
2022-11-12T05:03:15.174Z,11.50
2022-11-12T05:05:41.575Z,12.10
2022-11-12T05:08:08.003Z,12.05
2022-11-12T05:10:34.531Z,14.63
2022-11-12T05:13:00.983Z,14.50
2022-11-12T05:15:27.405Z,14.07
2022-11-12T05:17:53.796Z,11.60
2022-11-12T05:20:20.282Z,10.20
2022-11-12T05:23:04.463Z,10.00
2022-11-12T05:25:31.856Z,8.13
2022-11-12T05:27:58.242Z,8.10
2022-11-12T05:30:24.713Z,9.67
2022-11-12T05:32:51.300Z,10.00
2022-11-12T05:35:17.758Z,10.57
2022-11-12T05:37:44.264Z,11.38
2022-11-12T05:40:11.211Z,9.68
2022-11-12T05:42:37.629Z,9.30
2022-11-12T05:45:04.576Z,11.07
2022-11-12T05:47:30.974Z,10.60
2022-11-12T05:49:57.362Z,9.75
2022-11-12T05:52:23.755Z,10.57
2022-11-12T05:54:50.126Z,15.43
2022-11-12T05:57:16.504Z,9.77
2022-11-12T05:59:42.893Z,8.80
2022-11-12T06:02:09.327Z,8.35
2022-11-12T06:04:35.810Z,7.88
2022-11-12T06:07:04.174Z,8.50
2022-11-12T06:09:30.778Z,8.25
2022-11-12T06:11:57.184Z,7.80
2022-11-12T06:14:23.700Z,7.00
2022-11-12T06:16:50.289Z,7.05
2022-11-12T06:19:16.927Z,6.90
2022-11-12T06:21:43.339Z,6.20
2022-11-12T06:24:10.272Z,6.88
2022-11-12T06:26:37.920Z,5.88
2022-11-12T06:29:04.340Z,5.85
2022-11-12T06:31:31.037Z,5.20
2022-11-12T06:33:57.431Z,6.07
2022-11-12T06:36:24.471Z,5.70
2022-11-12T06:38:50.887Z,5.47
2022-11-12T06:41:17.748Z,6.35
2022-11-12T06:43:44.207Z,5.73
2022-11-12T06:46:15.854Z,7.55
2022-11-12T06:48:42.777Z,5.78
2022-11-12T06:51:17.619Z,5.82
2022-11-12T06:53:44.644Z,5.80
2022-11-12T06:56:11.847Z,5.90
2022-11-12T06:58:38.299Z,5.10
2022-11-12T07:01:11.155Z,5.80
2022-11-12T07:03:39.185Z,5.40
2022-11-12T07:06:08.351Z,5.65
2022-11-12T07:08:34.924Z,5.70
2022-11-12T07:11:01.529Z,5.57
2022-11-12T07:13:30.900Z,5.65
2022-11-12T07:15:58.900Z,6.05
2022-11-12T07:18:26.191Z,5.68
2022-11-12T07:20:58.501Z,5.47
2022-11-12T07:23:25.116Z,5.38
2022-11-12T07:26:02.101Z,5.20
2022-11-12T07:28:29.085Z,5.80
2022-11-12T07:31:06.853Z,6.32
2022-11-12T07:33:34.511Z,6.03
2022-11-12T07:36:04.129Z,6.22
2022-11-12T07:38:32.754Z,5.07
2022-11-12T07:41:05.934Z,4.97
2022-11-12T07:43:33.813Z,5.25
2022-11-12T07:46:07.510Z,4.93
2022-11-12T07:48:37.095Z,5.28
2022-11-12T07:51:06.733Z,4.38
2022-11-12T07:53:34.013Z,6.90
2022-11-12T07:56:02.277Z,5.68
2022-11-12T07:58:31.644Z,5.20
2022-11-12T08:00:58.999Z,4.45
2022-11-12T08:03:25.844Z,4.43
2022-11-12T08:05:52.223Z,4.70
2022-11-12T08:08:18.803Z,4.57
2022-11-12T08:10:45.192Z,4.13
2022-11-12T08:13:11.745Z,4.28
2022-11-12T08:15:38.211Z,4.68
2022-11-12T08:18:04.643Z,4.90
2022-11-12T08:20:31.172Z,4.30
2022-11-12T08:23:00.290Z,4.33
2022-11-12T08:25:27.148Z,5.25
2022-11-12T08:27:56.965Z,5.10
2022-11-12T08:30:23.508Z,4.47
2022-11-12T08:33:04.956Z,4.30
2022-11-12T08:35:32.906Z,4.90
2022-11-12T08:38:05.018Z,5.25
2022-11-12T08:40:32.531Z,4.47
2022-11-12T08:43:00.682Z,4.70
2022-11-12T08:45:28.608Z,4.68
2022-11-12T08:48:15.541Z,4.60
2022-11-12T08:50:42.297Z,4.50
2022-11-12T08:53:13.443Z,4.50
2022-11-12T08:55:39.965Z,4.93
2022-11-12T08:58:06.890Z,5.00
2022-11-12T09:00:36.353Z,4.97
2022-11-12T09:03:04.979Z,4.75
2022-11-12T09:05:32.350Z,6.40
2022-11-12T09:08:05.953Z,5.32
2022-11-12T09:10:33.163Z,5.00
2022-11-12T09:13:00.072Z,5.10
2022-11-12T09:15:42.477Z,5.07
2022-11-12T09:18:13.423Z,6.70
2022-11-12T09:20:40.041Z,4.82
2022-11-12T09:23:12.808Z,5.20
2022-11-12T09:25:40.622Z,5.83
2022-11-12T09:28:12.233Z,5.32
2022-11-12T09:30:43.413Z,5.60
2022-11-12T09:33:09.996Z,4.85
2022-11-12T09:35:36.385Z,5.22
2022-11-12T09:38:02.770Z,4.60
2022-11-12T09:40:53.210Z,4.07
2022-11-12T09:43:30.993Z,3.60
2022-11-12T09:46:26.631Z,3.50
2022-11-12T09:48:58.007Z,3.58
2022-11-12T09:51:42.940Z,3.50
2022-11-12T09:54:21.421Z,3.75
2022-11-12T09:56:49.504Z,4.20
2022-11-12T09:59:16.592Z,4.57
2022-11-12T10:02:04.440Z,4.20
2022-11-12T10:04:33.879Z,4.73
2022-11-12T10:07:13.068Z,4.90
2022-11-12T10:09:59.431Z,5.15
2022-11-12T10:12:54.300Z,5.07
2022-11-12T10:15:54.529Z,4.80
2022-11-12T10:18:28.282Z,4.73
2022-11-12T10:20:59.026Z,4.45
2022-11-12T10:23:32.797Z,5.10
2022-11-12T10:26:01.058Z,4.50
2022-11-12T10:28:38.557Z,4.75
2022-11-12T10:31:13.454Z,4.60
2022-11-12T10:33:39.995Z,4.72
2022-11-12T10:36:21.099Z,4.60
2022-11-12T10:38:52.153Z,4.68
2022-11-12T10:41:22.815Z,4.88
2022-11-12T10:44:01.400Z,4.93
2022-11-12T10:46:34.376Z,5.32
2022-11-12T10:49:08.067Z,11.10
2022-11-12T10:51:36.914Z,5.47
2022-11-12T10:54:29.227Z,5.25
2022-11-12T10:56:55.994Z,5.47
2022-11-12T10:59:23.707Z,5.13
2022-11-12T11:01:58.906Z,5.05
2022-11-12T11:04:37.021Z,4.63
2022-11-12T11:07:23.141Z,5.15
2022-11-12T11:10:24.447Z,5.10
2022-11-12T11:13:09.485Z,5.55
2022-11-12T11:15:36.212Z,5.30
2022-11-12T11:18:02.849Z,4.97
2022-11-12T11:20:43.717Z,8.63
2022-11-12T11:23:28.917Z,5.03
2022-11-12T11:26:00.010Z,4.80
2022-11-12T11:28:47.450Z,4.80
2022-11-12T11:31:37.657Z,4.97
2022-11-12T11:34:35.502Z,10.07
2022-11-12T11:37:27.045Z,12.07
2022-11-12T11:39:59.369Z,5.80
2022-11-12T11:42:41.011Z,8.70
2022-11-12T11:45:26.479Z,7.32
2022-11-12T11:48:31.760Z,6.43
2022-11-12T11:51:24.825Z,9.77
2022-11-12T11:54:27.846Z,5.43
2022-11-12T11:56:59.060Z,8.18
2022-11-12T11:59:54.263Z,5.22
2022-11-12T12:02:28.182Z,4.28
2022-11-12T12:05:12.026Z,3.93
2022-11-12T12:07:41.367Z,4.32
2022-11-12T12:11:01.693Z,3.78
2022-11-12T12:13:49.116Z,4.00
2022-11-12T12:16:49.716Z,3.85
2022-11-12T12:19:34.166Z,3.70
2022-11-12T12:22:03.773Z,3.60
2022-11-12T12:24:37.043Z,4.20
2022-11-12T12:27:12.422Z,4.07
2022-11-12T12:29:50.856Z,3.75
2022-11-12T12:32:21.676Z,4.13
2022-11-12T12:35:01.132Z,4.07
2022-11-12T12:37:36.723Z,3.97
2022-11-12T12:40:18.706Z,4.50
2022-11-12T12:42:47.580Z,4.15
2022-11-12T12:45:36.873Z,4.03
2022-11-12T12:48:07.867Z,4.30
2022-11-12T12:50:38.227Z,4.00
2022-11-12T12:53:15.175Z,4.03
2022-11-12T12:55:44.355Z,4.80
2022-11-12T12:58:18.997Z,4.00
2022-11-12T13:01:21.275Z,4.60
2022-11-12T13:03:58.369Z,4.13
2022-11-12T13:06:51.385Z,4.50
2022-11-12T13:09:17.807Z,5.05
2022-11-12T13:12:02.670Z,4.60
2022-11-12T13:14:34.806Z,5.07
2022-11-12T13:17:07.015Z,5.55
2022-11-12T13:19:46.539Z,5.30
2022-11-12T13:22:19.031Z,5.22
2022-11-12T13:25:10.359Z,5.32
2022-11-12T13:27:40.064Z,5.13
2022-11-12T13:30:30.657Z,5.63
2022-11-12T13:32:58.326Z,5.27
2022-11-12T13:35:24.773Z,5.28
2022-11-12T13:37:58.633Z,5.35
2022-11-12T13:40:45.557Z,5.30
2022-11-12T13:43:27.581Z,5.18
2022-11-12T13:46:06.480Z,5.10
2022-11-12T13:48:43.934Z,5.43
2022-11-12T13:51:19.315Z,5.72
2022-11-12T13:53:46.300Z,6.90
2022-11-12T13:56:23.931Z,11.48
2022-11-12T13:58:50.380Z,12.73
2022-11-12T14:01:20.853Z,15.40
2022-11-12T14:03:51.183Z,8.40
2022-11-12T14:06:23.383Z,7.53
2022-11-12T14:09:10.473Z,7.65
2022-11-12T14:11:47.929Z,10.20
2022-11-12T14:14:38.622Z,8.60
2022-11-12T14:18:02.840Z,8.55
2022-11-12T14:20:40.213Z,9.02
2022-11-12T14:23:24.164Z,7.18
2022-11-12T14:25:56.507Z,7.57
2022-11-12T14:28:28.159Z,13.85
2022-11-12T14:30:56.675Z,13.43
2022-11-12T14:33:27.533Z,10.38
2022-11-12T14:36:00.069Z,10.27
2022-11-12T14:38:43.470Z,8.50
2022-11-12T14:41:17.856Z,8.07
2022-11-12T14:43:47.882Z,9.45
2022-11-12T14:46:25.873Z,16.48
2022-11-12T14:49:06.732Z,12.40
2022-11-12T14:51:44.323Z,8.10
2022-11-12T14:54:20.538Z,7.60
2022-11-12T14:56:52.243Z,6.72
2022-11-12T14:59:19.293Z,6.93
2022-11-12T15:02:29.445Z,8.38
2022-11-12T15:05:01.679Z,8.33
2022-11-12T15:07:28.325Z,10.75
2022-11-12T15:09:55.031Z,10.80
2022-11-12T15:12:40.352Z,12.60
2022-11-12T15:15:44.207Z,13.43
2022-11-12T15:18:22.015Z,17.00
2022-11-12T15:24:11.231Z,13.85
2022-11-12T15:35:03.398Z,12.23
2022-11-12T15:41:06.973Z,13.57
2022-11-12T15:47:54.410Z,11.93
2022-11-12T15:52:20.825Z,10.70
2022-11-12T15:58:06.881Z,15.85
2022-11-12T16:00:36.480Z,12.40
2022-11-12T16:03:26.638Z,11.85
2022-11-12T16:05:53.334Z,11.30
2022-11-12T16:08:19.886Z,10.30
2022-11-12T16:10:47.093Z,10.23
2022-11-12T16:13:28.807Z,10.50
2022-11-12T16:15:55.678Z,10.88
2022-11-12T16:18:22.453Z,10.20
2022-11-12T16:20:49.899Z,10.35
2022-11-12T16:23:16.518Z,11.55
2022-11-12T16:25:43.974Z,10.10
2022-11-12T16:28:15.434Z,10.55
2022-11-12T16:30:42.063Z,12.27
2022-11-12T16:33:13.126Z,12.05
2022-11-12T16:35:40.481Z,14.02
2022-11-12T16:38:14.393Z,13.05
2022-11-12T16:40:41.661Z,15.85
2022-11-12T16:43:08.061Z,14.47
2022-11-12T16:45:42.737Z,23.63
2022-11-12T16:48:21.098Z,15.45
2022-11-12T16:50:48.277Z,12.13
2022-11-12T16:53:14.747Z,13.60
2022-11-12T16:55:41.843Z,12.43
2022-11-12T16:58:12.871Z,10.30
2022-11-12T17:00:41.077Z,12.25
2022-11-12T17:03:08.488Z,12.07
2022-11-12T17:05:34.880Z,11.82
2022-11-12T17:08:01.325Z,12.67
2022-11-12T17:10:27.888Z,11.82
2022-11-12T17:12:54.407Z,12.13
2022-11-12T17:15:20.792Z,12.10
2022-11-12T17:17:47.338Z,12.15
2022-11-12T17:20:14.042Z,11.20
2022-11-12T17:22:40.428Z,10.68
2022-11-12T17:25:08.132Z,11.20
2022-11-12T17:27:34.653Z,9.73
2022-11-12T17:30:01.306Z,10.32
2022-11-12T17:32:27.930Z,9.30
2022-11-12T17:34:54.323Z,9.93
2022-11-12T17:37:20.945Z,9.90
2022-11-12T17:39:47.479Z,9.85
2022-11-12T17:42:13.900Z,10.25
2022-11-12T17:44:40.379Z,9.80
2022-11-12T17:47:06.765Z,10.50
2022-11-12T17:49:33.172Z,13.25
2022-11-12T17:51:59.651Z,12.93
2022-11-12T17:54:26.093Z,11.60
2022-11-12T17:56:52.522Z,10.83
2022-11-12T17:59:18.964Z,11.73
2022-11-12T18:01:45.404Z,9.98
2022-11-12T18:04:12.681Z,9.25
2022-11-12T18:06:39.139Z,10.65
2022-11-12T18:09:08.195Z,10.50
2022-11-12T18:11:43.008Z,11.00
2022-11-12T18:14:09.782Z,11.05
2022-11-12T18:16:36.681Z,11.55
2022-11-12T18:19:03.927Z,9.25
2022-11-12T18:21:30.555Z,9.20
2022-11-12T18:23:57.044Z,9.95
2022-11-12T18:26:23.469Z,8.40
2022-11-12T18:28:58.249Z,9.57
2022-11-12T18:31:26.861Z,10.55
2022-11-12T18:33:54.430Z,9.07
2022-11-12T18:36:24.295Z,9.68
2022-11-12T18:38:52.457Z,10.05
2022-11-12T18:41:22.844Z,13.00
2022-11-12T18:43:49.285Z,12.68
2022-11-12T18:46:15.788Z,11.00
2022-11-12T18:48:42.300Z,10.63
2022-11-12T18:51:11.445Z,11.27
2022-11-12T18:53:39.461Z,9.73
2022-11-12T18:56:17.315Z,10.57
2022-11-12T18:58:44.356Z,8.20
2022-11-12T19:01:20.810Z,8.10
2022-11-12T19:03:48.207Z,11.90
2022-11-12T19:06:15.163Z,13.30
2022-11-12T19:08:42.176Z,13.90
2022-11-12T19:11:14.117Z,11.20
2022-11-12T19:13:41.237Z,9.57
2022-11-12T19:16:14.019Z,10.23
2022-11-12T19:18:41.809Z,11.70
2022-11-12T19:21:17.321Z,9.38
2022-11-12T19:23:44.284Z,16.93
2022-11-12T19:26:12.813Z,12.45
2022-11-12T19:28:40.247Z,12.40
2022-11-12T19:31:10.812Z,11.55
2022-11-12T19:33:37.229Z,10.70
2022-11-12T19:36:08.849Z,11.13
2022-11-12T19:38:35.304Z,13.10
2022-11-12T19:41:06.045Z,12.27
2022-11-12T19:43:32.634Z,9.35
2022-11-12T19:45:59.193Z,8.63
2022-11-12T19:48:27.013Z,8.50
2022-11-12T19:50:54.587Z,9.35
2022-11-12T19:53:20.986Z,10.02
2022-11-12T19:55:47.647Z,9.38
2022-11-12T19:58:14.059Z,9.18
2022-11-12T20:00:40.613Z,8.90
2022-11-12T20:03:07.077Z,15.85
2022-11-12T20:05:33.584Z,19.58
2022-11-12T20:08:00.005Z,20.23
2022-11-12T20:10:26.463Z,19.75
2022-11-12T20:12:54.334Z,21.63
2022-11-12T20:15:20.937Z,20.45
2022-11-12T20:17:47.559Z,14.55
2022-11-12T20:20:13.986Z,16.55
2022-11-12T20:22:40.378Z,17.58
2022-11-12T20:25:07.196Z,16.57
2022-11-12T20:27:33.695Z,16.35
2022-11-12T20:30:00.204Z,15.65
2022-11-12T20:32:26.818Z,16.70
2022-11-12T20:34:53.279Z,15.90
2022-11-12T20:37:19.696Z,17.40
2022-11-12T20:39:46.651Z,19.80
2022-11-12T20:42:13.166Z,20.80
2022-11-12T20:44:39.678Z,22.60
2022-11-12T20:47:06.140Z,25.25
2022-11-12T20:49:32.634Z,24.37
2022-11-12T20:51:59.136Z,21.48
2022-11-12T20:54:25.875Z,21.55
2022-11-12T20:56:52.298Z,19.40
2022-11-12T20:59:18.739Z,18.80
2022-11-12T21:01:45.453Z,28.10
2022-11-12T21:04:12.377Z,23.52
2022-11-12T21:06:39.269Z,17.98
2022-11-12T21:09:05.794Z,20.83
2022-11-12T21:11:32.402Z,20.17
2022-11-12T21:14:00.383Z,16.97
2022-11-12T21:16:27.032Z,16.17
2022-11-12T21:18:53.573Z,15.38
2022-11-12T21:21:21.143Z,15.20
2022-11-12T21:23:51.248Z,16.05
2022-11-12T21:26:20.253Z,16.07
2022-11-12T21:28:52.083Z,16.92
2022-11-12T21:31:21.710Z,19.98
2022-11-12T21:33:52.604Z,15.85
2022-11-12T21:36:22.888Z,14.82
2022-11-12T21:38:49.823Z,13.27
2022-11-12T21:41:18.997Z,12.05
2022-11-12T21:43:46.825Z,12.68
2022-11-12T21:46:19.193Z,11.73
2022-11-12T21:48:46.647Z,13.23
2022-11-12T21:51:16.610Z,12.63
2022-11-12T21:53:44.736Z,14.30
2022-11-12T21:56:16.706Z,15.23
2022-11-12T21:58:43.859Z,16.77
2022-11-12T22:01:20.015Z,18.27
2022-11-12T22:03:47.730Z,15.10
2022-11-12T22:06:14.301Z,13.65
2022-11-12T22:08:41.084Z,15.30
2022-11-12T22:11:10.804Z,13.70
2022-11-12T22:13:38.213Z,12.60
2022-11-12T22:16:09.544Z,13.53
2022-11-12T22:18:36.066Z,12.32
2022-11-12T22:21:07.846Z,11.65
2022-11-12T22:23:36.081Z,12.73
2022-11-12T22:26:11.087Z,11.68
2022-11-12T22:28:37.771Z,14.30
2022-11-12T22:31:05.811Z,13.63
2022-11-12T22:33:32.334Z,15.60
2022-11-12T22:36:08.747Z,14.00
2022-11-12T22:38:37.054Z,13.50
2022-11-12T22:41:08.927Z,15.60
2022-11-12T22:43:37.770Z,15.25
2022-11-12T22:46:12.629Z,15.00
2022-11-12T22:48:39.882Z,15.77
2022-11-12T22:51:08.661Z,14.23
2022-11-12T22:53:35.412Z,14.10
2022-11-12T22:56:06.587Z,13.90
2022-11-12T22:58:37.730Z,14.15
2022-11-12T23:01:05.686Z,14.25
2022-11-12T23:03:33.717Z,15.88
2022-11-12T23:06:03.129Z,14.63
2022-11-12T23:08:30.973Z,15.23
2022-11-12T23:11:01.577Z,15.15
2022-11-12T23:13:28.089Z,17.77
2022-11-12T23:15:54.622Z,16.80
2022-11-12T23:18:21.088Z,17.97
2022-11-12T23:20:47.694Z,19.20
2022-11-12T23:23:14.135Z,19.10
2022-11-12T23:25:40.804Z,18.88
2022-11-12T23:28:07.825Z,18.15
2022-11-12T23:30:35.427Z,18.27
2022-11-12T23:33:02.422Z,17.48
2022-11-12T23:35:29.990Z,17.95
2022-11-12T23:37:56.569Z,18.40
2022-11-12T23:40:26.078Z,19.30
2022-11-12T23:42:56.181Z,17.90
2022-11-12T23:45:23.380Z,17.40
2022-11-12T23:47:49.767Z,17.33
2022-11-12T23:50:16.573Z,17.20
2022-11-12T23:52:43.015Z,17.20
2022-11-12T23:55:09.588Z,17.07
2022-11-12T23:57:36.019Z,17.42
